TNCE/EUX METAR and TAF weather

Enter ICAO airport designator
Station Type Date Time Source
TNCE METAR 2019/02/16 07:55 UTC NOAA

TNCE 160755Z AUTO VRB02KT //// // ///////// 23/21 Q1016 RE//


Station Type Date Time Source
TNCE Decoded METAR 2019/02/16 07:55 UTC NOAA

Roosevelt Airport Saint Eustatius, Netherlands Antilles (TNCE) 17-29N 062-59W 39M
Feb 16, 2019 - 02:55 AM EST / 2019.02.16 0755 UTC
Wind: Variable at 2 MPH (2 KT):0
Temperature: 73 F (23 C)
Dew Point: 69 F (21 C)
Relative Humidity: 88%
Pressure (altimeter): 30.00 in. Hg (1016 hPa)
ob: TNCE 160755Z AUTO VRB02KT //// // ///////// 23/21 Q1016 RE//
cycle: 8

Station Type Date Time Source
TNCE TAF UTC NOAA

Error!


Example: see airport list